Time;durP1;ratioP1;P1;durP2;ratioP2;P2;SDS_P1;SDS_P2;PMS_P1;PMS_P2;Temp;Humidity;BMP_temperature;BMP_pressure;BME280_temperature;BME280_humidity;BME280_pressure;Samples;Min_cycle;Max_cycle;Signal;HPM_P1;HPM_P2
2021/03/25 00:02:39;;;;;;;79.68;32.72;;;;;;;5.01;92.40;101797.06;6223486;28;20057;-76
2021/03/25 00:05:41;;;;;;;85.80;35.58;;;;;;;4.97;92.83;101797.97;6223602;28;20050;-76
2021/03/25 00:08:42;;;;;;;88.43;33.00;;;;;;;4.98;93.62;101797.09;6223732;28;20046;-75
2021/03/25 00:11:43;;;;;;;81.47;33.75;;;;;;;5.00;93.25;101788.38;6223255;28;20438;-76
2021/03/25 00:14:44;;;;;;;76.25;34.08;;;;;;;4.99;93.24;101788.38;6223579;28;20052;-76
2021/03/25 00:17:45;;;;;;;81.68;34.38;;;;;;;5.02;93.10;101785.75;6223370;28;20046;-76
2021/03/25 00:20:46;;;;;;;85.35;35.10;;;;;;;4.98;92.33;101794.47;6223461;28;20558;-75
2021/03/25 00:23:48;;;;;;;89.55;36.03;;;;;;;4.93;92.60;101794.53;6223110;28;20054;-75
2021/03/25 00:26:49;;;;;;;86.63;34.00;;;;;;;4.92;92.81;101797.19;6223453;28;20080;-75
2021/03/25 00:29:50;;;;;;;90.05;36.03;;;;;;;4.87;93.46;101791.16;6223135;28;20053;-75
2021/03/25 00:32:51;;;;;;;85.15;35.10;;;;;;;4.83;93.81;101777.31;6222869;28;20060;-75
2021/03/25 00:35:52;;;;;;;87.00;33.88;;;;;;;4.78;93.30;101773.91;6265030;23;20441;-75
2021/03/25 00:38:54;;;;;;;87.72;35.22;;;;;;;4.70;93.32;101771.41;6247368;28;20046;-75
2021/03/25 00:41:55;;;;;;;89.13;34.55;;;;;;;4.67;93.56;101773.19;6247392;28;20046;-75
2021/03/25 00:44:56;;;;;;;90.38;35.33;;;;;;;4.64;93.85;101770.63;6230477;28;20136;-75
2021/03/25 00:47:57;;;;;;;80.18;32.75;;;;;;;4.58;93.91;101767.19;6223078;28;20085;-75
2021/03/25 00:51:01;;;;;;;90.90;35.38;;;;;;;4.55;93.51;101767.25;6222524;28;20059;-75
2021/03/25 00:54:04;;;;;;;90.45;35.17;;;;;;;4.55;93.38;101764.66;6222979;28;20053;-75
2021/03/25 00:57:06;;;;;;;83.57;34.55;;;;;;;4.56;92.85;101768.13;6222750;28;20053;-75
2021/03/25 01:00:08;;;;;;;87.07;34.70;;;;;;;4.58;93.00;101772.41;6222952;28;20058;-75
2021/03/25 01:03:11;;;;;;;91.70;34.33;;;;;;;4.58;93.23;101767.19;6222419;28;20054;-75
2021/03/25 01:06:12;;;;;;;89.80;35.83;;;;;;;4.63;93.32;101766.28;6222259;28;20049;-74
2021/03/25 01:09:20;;;;;;;78.38;32.80;;;;;;;4.61;93.21;101768.91;6222624;28;20049;-75
2021/03/25 01:12:21;;;;;;;80.40;33.28;;;;;;;4.59;92.89;101770.69;6222430;28;20053;-75
2021/03/25 01:15:22;;;;;;;87.95;34.97;;;;;;;4.57;93.34;101772.44;6222783;28;20134;-74
2021/03/25 01:18:24;;;;;;;90.85;34.58;;;;;;;4.46;93.55;101776.91;6222268;28;20057;-74
2021/03/25 01:21:27;;;;;;;84.47;34.17;;;;;;;4.45;93.72;101778.66;6222532;28;20054;-74
2021/03/25 01:24:29;;;;;;;91.65;35.78;;;;;;;4.36;94.02;101777.88;6222126;28;20469;-74
2021/03/25 01:27:30;;;;;;;89.22;33.95;;;;;;;4.30;94.21;101769.25;6222292;28;20045;-74
2021/03/25 01:30:33;;;;;;;87.28;34.53;;;;;;;4.33;94.17;101768.38;6237497;28;20108;-74
2021/03/25 01:33:34;;;;;;;91.80;35.38;;;;;;;4.26;94.69;101772.78;6246466;28;20056;-74
2021/03/25 01:36:35;;;;;;;97.55;37.17;;;;;;;4.25;93.97;101767.59;6246487;28;20045;-74
2021/03/25 01:39:37;;;;;;;105.13;33.97;;;;;;;4.14;94.22;101762.53;6246469;28;20050;-74
2021/03/25 01:42:38;;;;;;;86.00;36.53;;;;;;;4.06;95.32;101761.72;6246944;28;20096;-74
2021/03/25 01:45:43;;;;;;;86.70;35.10;;;;;;;4.15;94.86;101764.22;6251360;28;20050;-75
2021/03/25 01:48:47;;;;;;;88.63;34.45;;;;;;;4.06;95.19;101761.72;6238116;28;20414;-74
2021/03/25 01:51:58;;;;;;;87.47;33.97;;;;;;;4.04;94.90;101766.06;6251211;28;20053;-75
2021/03/25 01:55:25;;;;;;;95.72;36.88;;;;;;;4.02;95.38;101767.84;6251472;28;20054;-74
2021/03/25 01:58:43;;;;;;;86.65;34.40;;;;;;;3.99;94.86;101765.25;6251192;28;20053;-74
2021/03/25 02:01:51;;;;;;;87.28;35.08;;;;;;;3.91;95.37;101761.88;6251143;28;20050;-75
2021/03/25 02:05:02;;;;;;;104.18;35.80;;;;;;;3.89;95.52;101764.47;6251336;28;20053;-75
2021/03/25 02:08:12;;;;;;;85.75;35.00;;;;;;;3.86;95.01;101769.72;6251104;28;20501;-75
2021/03/25 02:11:21;;;;;;;;;;;;;;;3.82;96.01;101765.44;6251578;28;20113;-76
2021/03/25 02:14:31;;;;;;;82.32;34.83;;;;;;;3.79;96.02;101760.25;6250950;28;19925;-75
2021/03/25 02:17:39;;;;;;;89.82;36.17;;;;;;;3.74;95.85;101762.03;6251157;28;20072;-76
2021/03/25 02:21:09;;;;;;;89.97;35.83;;;;;;;3.69;96.12;101754.28;6250861;28;20148;-76
2021/03/25 02:24:24;;;;;;;89.63;35.15;;;;;;;3.78;96.65;101750.72;6250604;28;20398;-75
2021/03/25 02:27:48;;;;;;;95.22;35.83;;;;;;;3.75;96.81;101754.22;6250578;28;20490;-76
2021/03/25 02:31:00;;;;;;;92.28;35.30;;;;;;;3.81;96.24;101755.88;6241998;28;20053;-76
2021/03/25 02:34:06;;;;;;;98.20;35.70;;;;;;;3.79;96.61;101766.31;6250676;28;20049;-75
2021/03/25 02:37:11;;;;;;;92.50;36.60;;;;;;;3.81;97.14;101759.38;6250371;28;20048;-76
2021/03/25 02:40:16;;;;;;;92.65;37.90;;;;;;;3.86;97.37;101753.25;6250543;28;20045;-76
2021/03/25 02:43:22;;;;;;;94.20;36.15;;;;;;;3.88;96.75;101751.50;6250124;28;20084;-75
2021/03/25 02:46:29;;;;;;;88.25;34.17;;;;;;;3.93;97.01;101757.53;6249993;28;20048;-76
2021/03/25 02:49:35;;;;;;;99.10;35.90;;;;;;;3.91;97.14;101761.88;6250355;28;20053;-76
2021/03/25 02:52:41;;;;;;;93.85;36.15;;;;;;;3.96;97.21;101758.34;6249708;28;20046;-76
2021/03/25 02:55:42;;;;;;;92.25;34.97;;;;;;;3.98;97.27;101761.78;6249843;28;20409;-75
2021/03/25 02:58:47;;;;;;;85.78;34.40;;;;;;;4.02;97.38;101760.88;6249856;28;20057;-76
2021/03/25 03:01:53;;;;;;;106.53;37.13;;;;;;;4.01;96.93;101761.78;6249754;28;20049;-75
2021/03/25 03:05:00;;;;;;;100.38;36.03;;;;;;;4.04;97.32;101759.16;6249740;28;20052;-75
2021/03/25 03:08:07;;;;;;;92.53;37.88;;;;;;;4.07;97.36;101766.03;6249832;28;20104;-75
2021/03/25 03:11:12;;;;;;;84.35;34.85;;;;;;;4.04;97.31;101761.75;6249428;28;20057;-75
2021/03/25 03:14:18;;;;;;;93.88;36.45;;;;;;;4.00;97.26;101756.59;6249295;28;20053;-75
2021/03/25 03:17:23;;;;;;;95.07;35.83;;;;;;;3.97;97.26;101754.03;6249609;28;20049;-75
2021/03/25 03:20:28;;;;;;;95.38;35.92;;;;;;;3.93;97.07;101752.31;6249552;28;20049;-75
2021/03/25 03:23:30;;;;;;;93.10;37.00;;;;;;;3.84;96.89;101752.41;6249058;28;20050;-76
2021/03/25 03:26:35;;;;;;;92.32;35.38;;;;;;;3.84;97.37;101747.22;6249350;28;20053;-75
2021/03/25 03:29:38;;;;;;;94.45;35.60;;;;;;;3.81;98.08;101748.97;6249169;28;20505;-75
2021/03/25 03:32:46;;;;;;;92.57;35.63;;;;;;;3.82;97.84;101749.84;6249252;28;20186;-76
2021/03/25 03:35:51;;;;;;;90.07;36.33;;;;;;;3.81;98.27;101751.56;6248913;28;20049;-76
2021/03/25 03:38:57;;;;;;;94.95;37.00;;;;;;;3.83;98.24;101750.69;6249197;28;20132;-75
2021/03/25 03:42:02;;;;;;;88.75;35.58;;;;;;;3.87;98.41;101742.00;6249061;28;20049;-75
2021/03/25 03:45:05;;;;;;;96.18;37.83;;;;;;;3.92;98.63;101746.25;6248986;28;20054;-75
2021/03/25 03:48:11;;;;;;;94.82;36.92;;;;;;;3.93;98.71;101740.19;6248773;28;20041;-75
2021/03/25 03:51:17;;;;;;;102.30;37.55;;;;;;;3.99;98.47;101739.25;6248684;28;20115;-74
2021/03/25 03:54:18;;;;;;;97.05;38.17;;;;;;;4.02;98.48;101740.09;6248674;28;20064;-75
2021/03/25 03:57:29;;;;;;;100.35;37.38;;;;;;;4.08;98.37;101744.34;6248800;28;20049;-74
2021/03/25 04:00:35;;;;;;;97.35;37.55;;;;;;;4.10;97.64;101739.16;6248640;28;20053;-75
2021/03/25 04:03:39;;;;;;;100.05;38.70;;;;;;;4.13;97.62;101739.09;6248287;28;20053;-74
2021/03/25 04:06:46;;;;;;;88.45;35.67;;;;;;;4.06;98.03;101735.72;6244458;28;20215;-75
2021/03/25 04:09:51;;;;;;;89.78;35.17;;;;;;;4.02;97.96;101734.88;6245839;28;20050;-74
2021/03/25 04:12:54;;;;;;;102.63;39.72;;;;;;;4.01;97.75;101740.97;6247717;28;20057;-76
2021/03/25 04:15:55;;;;;;;98.60;38.42;;;;;;;4.04;98.12;101729.66;6247193;28;20445;-76
2021/03/25 04:19:02;;;;;;;102.35;39.08;;;;;;;4.11;97.93;101740.88;6247465;28;20050;-76
2021/03/25 04:22:05;;;;;;;102.95;37.38;;;;;;;4.17;97.40;101739.06;6247136;28;20049;-75
2021/03/25 04:25:10;;;;;;;98.82;37.22;;;;;;;4.16;97.46;101741.69;6246964;28;20049;-76
2021/03/25 04:28:18;;;;;;;92.55;36.45;;;;;;;4.16;97.55;101739.94;6247248;28;20037;-75
2021/03/25 04:31:19;;;;;;;82.72;34.45;;;;;;;4.22;97.59;101745.06;6244631;28;20045;-75
2021/03/25 04:34:21;;;;;;;99.38;36.88;;;;;;;4.25;97.71;101736.38;6246921;28;20049;-75
2021/03/25 04:37:24;;;;;;;89.78;34.95;;;;;;;4.25;97.99;101739.84;6247675;28;20052;-76
2021/03/25 04:40:28;;;;;;;99.38;36.67;;;;;;;4.30;97.65;101739.78;6247493;28;20148;-75
2021/03/25 04:43:30;;;;;;;100.68;37.72;;;;;;;4.31;97.75;101742.38;6247646;28;20099;-76
2021/03/25 04:46:44;;;;;;;85.53;36.55;;;;;;;4.38;97.98;101747.50;6247298;28;20045;-75
2021/03/25 04:49:52;;;;;;;93.88;38.33;;;;;;;4.41;97.44;101745.75;6247660;28;20053;-75
2021/03/25 04:53:01;;;;;;;96.93;36.40;;;;;;;4.43;97.39;101740.50;6246978;28;20461;-76
2021/03/25 04:56:07;;;;;;;96.72;38.58;;;;;;;4.47;97.83;101750.00;6247178;28;20049;-75
2021/03/25 04:59:08;;;;;;;108.30;39.25;;;;;;;4.48;98.17;101747.38;6247249;28;20049;-75
2021/03/25 05:02:11;;;;;;;107.72;39.60;;;;;;;4.53;97.60;101742.97;6247047;28;20045;-76
2021/03/25 05:05:16;;;;;;;96.00;38.38;;;;;;;4.60;97.79;101748.13;6247093;28;20065;-75
2021/03/25 05:08:19;;;;;;;94.22;38.38;;;;;;;4.60;97.15;101740.31;6246465;28;20049;-75
2021/03/25 05:11:23;;;;;;;98.43;39.38;;;;;;;4.61;97.32;101748.09;6246645;28;20049;-76
2021/03/25 05:14:26;;;;;;;107.80;41.17;;;;;;;4.63;97.49;101753.25;6243811;28;20060;-75
2021/03/25 05:17:35;;;;;;;108.30;42.42;;;;;;;4.68;96.73;101756.66;6245845;28;20253;-75
2021/03/25 05:20:41;;;;;;;96.67;38.97;;;;;;;4.73;97.02;101752.28;6247018;28;20057;-76
2021/03/25 05:23:47;;;;;;;109.68;42.53;;;;;;;4.80;97.12;101753.91;6246568;28;20049;-75
2021/03/25 05:26:55;;;;;;;112.70;44.47;;;;;;;4.73;96.79;101753.16;6246551;28;20056;-75
2021/03/25 05:30:00;;;;;;;120.32;45.45;;;;;;;4.76;96.60;101747.88;6246752;28;20510;-76
2021/03/25 05:33:04;;;;;;;106.32;42.38;;;;;;;4.77;96.91;101757.44;6246469;28;20050;-75
2021/03/25 05:36:09;;;;;;;109.72;42.97;;;;;;;4.78;96.96;101750.47;6246458;28;20054;-75
2021/03/25 05:39:10;;;;;;;114.82;44.95;;;;;;;4.78;97.20;101756.56;6246576;28;20061;-75
2021/03/25 05:42:26;;;;;;;111.18;45.83;;;;;;;4.81;97.10;101761.72;6246460;28;20129;-76
2021/03/25 05:45:52;;;;;;;108.53;42.85;;;;;;;4.84;97.16;101756.47;6245854;28;20049;-74
2021/03/25 05:49:05;;;;;;;110.97;42.90;;;;;;;4.85;97.68;101759.91;6244045;28;20525;-75
2021/03/25 05:52:23;;;;;;;112.72;44.67;;;;;;;4.89;97.50;101761.59;6245689;28;20041;-75
2021/03/25 05:55:56;;;;;;;102.45;42.58;;;;;;;4.94;97.86;101754.59;6244927;28;20116;-74
2021/03/25 05:59:00;;;;;;;104.75;42.45;;;;;;;4.96;97.34;101759.78;6246537;28;20053;-75
2021/03/25 06:02:05;;;;;;;111.90;44.40;;;;;;;4.96;97.33;101759.78;6245968;28;20052;-75
2021/03/25 06:05:11;;;;;;;111.68;41.33;;;;;;;4.98;97.46;101765.81;6246328;28;20049;-75
2021/03/25 06:08:34;;;;;;;109.40;46.50;;;;;;;4.98;97.34;101763.22;6246162;28;20075;-74
2021/03/25 06:11:45;;;;;;;111.90;44.92;;;;;;;4.99;97.75;101764.94;6245926;28;20418;-75
2021/03/25 06:15:01;;;;;;;113.10;44.92;;;;;;;4.97;97.39;101769.31;6246366;28;20050;-74
2021/03/25 06:18:15;;;;;;;112.32;43.30;;;;;;;5.01;96.79;101771.00;6246090;28;20052;-74
2021/03/25 06:21:20;;;;;;;107.88;43.17;;;;;;;5.04;96.70;101779.66;6243823;28;20045;-74
2021/03/25 06:24:51;;;;;;;107.03;43.83;;;;;;;5.09;97.04;101783.03;6245781;28;20053;-74
2021/03/25 06:28:11;;;;;;;109.57;45.47;;;;;;;5.13;96.93;101789.06;6246185;28;20088;-74
2021/03/25 06:31:22;;;;;;;114.25;45.42;;;;;;;5.15;96.83;101786.44;6249501;28;20049;-75
2021/03/25 06:34:29;;;;;;;114.13;44.58;;;;;;;5.23;96.17;101782.00;6249968;28;20060;-74
2021/03/25 06:37:38;;;;;;;108.60;45.97;;;;;;;5.23;96.18;101793.28;6226923;23;20061;-78
2021/03/25 06:40:42;;;;;;;123.55;44.25;;;;;;;5.31;95.76;101796.63;6201370;28;20058;-78
2021/03/25 06:43:48;;;;;;;116.93;47.50;;;;;;;5.35;96.00;101805.25;6199251;28;20054;-78
2021/03/25 06:47:05;;;;;;;124.85;46.83;;;;;;;5.44;95.88;101797.28;6177049;28;20504;-78
2021/03/25 06:50:07;;;;;;;111.85;44.97;;;;;;;5.53;95.72;101799.75;6177504;28;20047;-78
2021/03/25 06:53:22;;;;;;;110.40;41.92;;;;;;;5.63;95.06;101803.06;6199310;28;20403;-78
2021/03/25 06:56:32;;;;;;;106.68;43.60;;;;;;;5.66;95.06;101799.56;6196619;28;20038;-78
2021/03/25 06:59:35;;;;;;;105.50;44.42;;;;;;;5.72;94.59;101802.06;6199544;28;20046;-78
2021/03/25 07:02:37;;;;;;;112.13;43.80;;;;;;;5.75;95.09;101797.66;6199138;28;20038;-78
2021/03/25 07:05:39;;;;;;;109.40;44.95;;;;;;;5.83;94.84;101792.34;6198990;28;20404;-78
2021/03/25 07:08:40;;;;;;;104.80;43.50;;;;;;;6.15;94.46;101794.41;6199144;28;20504;-78
2021/03/25 07:11:43;;;;;;;112.38;44.47;;;;;;;6.06;93.96;101792.81;6198936;28;20046;-78
2021/03/25 07:14:45;;;;;;;105.75;45.53;;;;;;;6.11;94.18;101797.97;6196480;28;20050;-78
2021/03/25 07:17:46;;;;;;;110.63;44.80;;;;;;;6.20;94.19;101804.78;6199244;28;20410;-78
2021/03/25 07:20:47;;;;;;;109.43;44.90;;;;;;;6.25;94.03;101802.94;6198652;28;20050;-78
2021/03/25 07:23:48;;;;;;;105.60;43.80;;;;;;;6.37;93.35;101799.25;6200264;28;20061;-80
2021/03/25 07:26:57;;;;;;;100.43;41.42;;;;;;;6.50;93.11;101806.81;6200250;28;20053;-79
2021/03/25 07:30:02;;;;;;;113.53;44.70;;;;;;;6.60;92.09;101803.13;6199413;28;20042;-79
2021/03/25 07:33:07;;;;;;;105.40;44.03;;;;;;;6.71;91.96;101796.81;6199567;28;20129;-79
2021/03/25 07:36:11;;;;;;;103.28;43.85;;;;;;;6.80;92.18;101799.22;6199846;28;20180;-79
2021/03/25 07:39:22;;;;;;;101.45;43.47;;;;;;;6.88;92.16;101793.84;6200026;28;20054;-80
2021/03/25 07:42:29;;;;;;;104.88;46.35;;;;;;;6.82;91.54;101793.09;6199038;28;20061;-79
2021/03/25 07:45:32;;;;;;;103.82;44.45;;;;;;;6.86;91.28;101786.06;6199786;28;20047;-80
2021/03/25 07:48:33;;;;;;;106.55;42.53;;;;;;;7.07;91.16;101788.19;6200037;28;20105;-80
2021/03/25 07:51:47;;;;;;;107.13;43.50;;;;;;;7.04;90.40;101796.13;6199636;28;20051;-80
2021/03/25 07:54:48;;;;;;;101.60;42.78;;;;;;;6.99;90.12;101794.47;6199686;28;20047;-80
2021/03/25 07:57:52;;;;;;;94.30;41.67;;;;;;;7.04;90.33;101797.84;6199579;28;20065;-80
2021/03/25 08:01:04;;;;;;;92.75;40.67;;;;;;;7.15;90.18;101802.84;6199337;28;20050;-81
2021/03/25 08:04:05;;;;;;;96.05;41.92;;;;;;;7.32;87.84;101804.19;6199485;28;20050;-81
2021/03/25 08:07:08;;;;;;;87.00;40.38;;;;;;;7.34;88.36;101802.41;6199146;28;20495;-80
2021/03/25 08:10:25;;;;;;;98.03;41.15;;;;;;;7.47;87.58;101812.59;6210846;28;20054;-81
2021/03/25 08:13:30;;;;;;;92.55;38.75;;;;;;;7.50;86.97;101821.22;6222362;28;20054;-80
2021/03/25 08:16:32;;;;;;;87.10;38.67;;;;;;;7.49;86.85;101821.25;6223555;28;20061;-80
2021/03/25 08:19:41;;;;;;;102.93;40.92;;;;;;;7.66;86.81;101820.84;6201823;28;20054;-80
2021/03/25 08:22:58;;;;;;;87.65;39.25;;;;;;;8.07;85.71;101825.06;6198117;28;20050;-80
2021/03/25 08:26:03;;;;;;;85.97;41.00;;;;;;;7.93;86.53;101824.56;6198973;28;20058;-80
2021/03/25 08:29:15;;;;;;;101.60;41.13;;;;;;;7.69;87.45;101812.94;6202874;28;20503;-80
2021/03/25 08:32:23;;;;;;;100.05;42.17;;;;;;;7.60;88.86;101821.88;6196457;28;20046;-81
2021/03/25 08:35:31;;;;;;;89.13;39.15;;;;;;;7.69;87.55;101826.88;6197643;28;20066;-82
2021/03/25 08:39:20;;;;;;;100.35;40.63;;;;;;;7.52;88.03;101826.41;6198023;28;20425;-81
2021/03/25 08:42:27;;;;;;;;;;;;;;;7.69;86.53;101826.88;6198874;28;20054;-80
2021/03/25 08:45:36;;;;;;;97.40;39.15;;;;;;;7.75;86.06;101831.94;6198535;28;19926;-79
2021/03/25 08:48:43;;;;;;;84.23;37.83;;;;;;;7.77;86.89;101831.94;6196888;28;20408;-79
2021/03/25 08:51:45;;;;;;;97.10;39.70;;;;;;;7.77;86.26;101838.03;6195189;28;20054;-79
2021/03/25 08:54:49;;;;;;;98.63;41.65;;;;;;;7.83;86.17;101834.38;6197371;28;20050;-79
2021/03/25 08:57:54;;;;;;;88.72;37.25;;;;;;;7.99;85.37;101842.72;6198491;28;20042;-79
2021/03/25 09:01:00;;;;;;;92.72;37.92;;;;;;;7.98;85.77;101848.84;6197995;28;20046;-81
2021/03/25 09:04:08;;;;;;;81.13;37.45;;;;;;;8.28;85.24;101840.22;6198057;28;20180;-80
2021/03/25 09:07:09;;;;;;;89.70;38.72;;;;;;;8.22;85.38;101836.88;6198155;28;20046;-79
2021/03/25 09:10:23;;;;;;;93.32;39.17;;;;;;;8.10;84.71;101836.31;6198158;28;20487;-80
2021/03/25 09:13:26;;;;;;;84.45;37.30;;;;;;;8.16;85.91;101837.06;6198053;28;20061;-80
2021/03/25 09:16:31;;;;;;;81.85;37.75;;;;;;;8.13;84.53;101836.25;6197769;28;20050;-80
2021/03/25 09:19:38;;;;;;;83.85;35.20;;;;;;;8.12;83.17;101837.13;6198018;28;20510;-80
2021/03/25 09:22:45;;;;;;;79.25;35.38;;;;;;;8.21;84.46;101838.66;6197356;28;20089;-81
2021/03/25 09:25:46;;;;;;;82.00;35.28;;;;;;;8.28;82.43;101834.97;6180465;28;20050;-81
2021/03/25 09:29:06;;;;;;;71.82;31.88;;;;;;;8.42;82.54;101833.78;6197921;28;20042;-81
2021/03/25 09:32:37;;;;;;;77.82;35.65;;;;;;;8.51;83.29;101838.78;6197389;28;20129;-82
2021/03/25 09:35:42;;;;;;;80.60;36.40;;;;;;;8.52;83.45;101840.50;6197203;28;20133;-81
2021/03/25 09:38:44;;;;;;;88.18;33.97;;;;;;;8.60;83.67;101833.28;6197408;28;20400;-81
2021/03/25 09:41:46;;;;;;;73.30;33.90;;;;;;;8.73;83.33;101824.19;6197347;28;20109;-80
2021/03/25 09:44:47;;;;;;;74.43;35.25;;;;;;;8.83;82.75;101825.63;6197601;28;20050;-83
2021/03/25 09:48:01;;;;;;;79.63;38.20;;;;;;;8.79;82.51;101824.00;6197502;28;20050;-79
2021/03/25 09:51:17;;;;;;;69.35;34.17;;;;;;;8.84;82.18;101824.72;6197521;28;20055;-77
2021/03/25 09:54:21;;;;;;;83.68;36.15;;;;;;;8.92;82.19;101824.50;6197797;28;20054;-78
2021/03/25 09:57:34;;;;;;;83.97;36.45;;;;;;;8.89;81.41;101814.97;6197312;28;20427;-77
2021/03/25 10:00:54;;;;;;;83.22;36.67;;;;;;;9.08;81.29;101817.03;6197704;28;20051;-79
2021/03/25 10:04:01;;;;;;;73.13;34.67;;;;;;;9.19;79.53;101820.22;6198155;28;20049;-79
2021/03/25 10:07:25;;;;;;;71.65;34.70;;;;;;;9.32;79.59;101818.94;6202313;28;20046;-79
2021/03/25 10:10:41;;;;;;;78.93;34.22;;;;;;;9.03;78.87;101818.94;6202415;28;20054;-80
2021/03/25 10:13:44;;;;;;;73.72;33.30;;;;;;;9.02;78.53;101825.09;6201925;28;20061;-80
2021/03/25 10:16:48;;;;;;;70.45;34.22;;;;;;;9.30;77.55;101822.50;6202114;28;20097;-80
2021/03/25 10:19:50;;;;;;;80.63;34.17;;;;;;;9.07;76.85;101818.81;6201985;28;20522;-80
2021/03/25 10:22:54;;;;;;;79.93;34.40;;;;;;;9.06;78.03;101822.34;6201890;28;20050;-81
2021/03/25 10:26:07;;;;;;;79.32;33.70;;;;;;;9.05;77.74;101815.38;6201566;28;20050;-80
2021/03/25 10:29:15;;;;;;;69.63;33.50;;;;;;;9.10;77.83;101808.22;6201763;28;20058;-80
2021/03/25 10:32:24;;;;;;;70.15;33.25;;;;;;;9.13;77.89;101816.03;6201492;28;20054;-80
2021/03/25 10:35:32;;;;;;;65.97;31.05;;;;;;;9.29;78.53;101811.16;6201673;28;20053;-82
2021/03/25 10:38:43;;;;;;;81.28;34.13;;;;;;;9.22;77.84;101812.25;6201822;28;20569;-83
2021/03/25 10:41:45;;;;;;;69.90;32.20;;;;;;;9.29;77.89;101810.28;6201669;28;20054;-86
2021/03/25 10:44:46;;;;;;;76.35;34.03;;;;;;;9.34;77.37;101806.63;6201329;28;20050;-82
2021/03/25 10:47:53;;;;;;;71.72;34.00;;;;;;;9.52;77.23;101802.56;6201424;28;20133;-83
2021/03/25 10:50:58;;;;;;;70.13;31.80;;;;;;;9.52;77.16;101796.44;6200941;28;20105;-82
2021/03/25 10:54:02;;;;;;;71.65;31.95;;;;;;;9.42;76.93;101795.88;6201354;28;20050;-83
2021/03/25 10:57:15;;;;;;;72.72;32.08;;;;;;;9.50;76.80;101787.78;6201240;28;20050;-79
2021/03/25 11:00:21;;;;;;;67.72;31.10;;;;;;;9.45;76.01;101782.69;6201117;28;20050;-81
2021/03/25 11:03:29;;;;;;;71.85;34.13;;;;;;;9.50;76.96;101787.78;6201108;28;20054;-82
2021/03/25 11:06:33;;;;;;;64.05;30.73;;;;;;;9.46;75.81;101779.16;6200801;28;20423;-80
2021/03/25 11:09:33;;;;;;;67.40;30.30;;;;;;;9.49;76.22;101773.78;6200869;28;20042;-81
2021/03/25 11:12:35;;;;;;;64.22;31.15;;;;;;;9.51;76.11;101771.13;6200465;28;20120;-81
2021/03/25 11:15:39;;;;;;;63.63;29.23;;;;;;;9.59;76.07;101762.09;6200769;28;20054;-81
2021/03/25 11:18:45;;;;;;;62.00;31.52;;;;;;;9.70;76.11;101766.13;6201192;28;20042;-81
2021/03/25 11:21:48;;;;;;;66.03;29.02;;;;;;;9.80;75.42;101770.16;6201778;28;20069;-82
2021/03/25 11:24:50;;;;;;;60.15;28.17;;;;;;;9.85;75.57;101760.34;6200397;28;20054;-81
2021/03/25 11:27:53;;;;;;;71.47;28.85;;;;;;;9.87;76.17;101764.66;6200525;28;20050;-81
2021/03/25 11:31:15;;;;;;;60.53;29.67;;;;;;;10.01;75.04;101766.81;6200054;28;20141;-82
2021/03/25 11:34:26;;;;;;;63.30;30.45;;;;;;;9.91;75.59;101754.91;6200544;28;20074;-80
2021/03/25 11:37:33;;;;;;;72.32;32.70;;;;;;;9.91;76.10;101754.91;6200034;28;20526;-82
2021/03/25 11:40:42;;;;;;;79.47;31.02;;;;;;;9.94;74.91;101754.78;6200113;28;20104;-82
2021/03/25 11:43:49;;;;;;;77.72;31.73;;;;;;;10.03;75.72;101749.22;6199852;28;20125;-82
2021/03/25 11:46:51;;;;;;;77.07;30.63;;;;;;;10.37;74.63;101748.06;6200098;28;20046;-83
2021/03/25 11:49:52;;;;;;;69.28;30.25;;;;;;;10.56;75.21;101743.84;6200529;28;20491;-84
2021/03/25 11:52:55;;;;;;;70.53;31.35;;;;;;;10.65;73.53;101753.16;6199990;28;20090;-81
2021/03/25 11:55:57;;;;;;;69.40;30.58;;;;;;;10.69;74.00;101748.63;6199684;28;20056;-82
2021/03/25 11:59:02;;;;;;;65.00;31.40;;;;;;;10.92;72.65;101753.88;6199777;28;20495;-77
2021/03/25 12:02:27;;;;;;;69.85;32.45;;;;;;;10.88;73.50;101754.91;6199358;28;20487;-83
2021/03/25 12:05:44;;;;;;;64.80;31.98;;;;;;;10.93;73.50;101748.53;6200232;28;20057;-80
2021/03/25 12:08:46;;;;;;;63.42;31.27;;;;;;;11.09;71.21;101751.44;6200590;28;20427;-82
2021/03/25 12:11:49;;;;;;;74.35;31.10;;;;;;;11.07;73.35;101739.25;6200077;28;20116;-81
2021/03/25 12:14:50;;;;;;;62.63;30.60;;;;;;;11.07;73.30;101740.13;6199160;28;20050;-81
2021/03/25 12:17:55;;;;;;;68.40;33.33;;;;;;;11.30;71.41;101743.59;6199455;28;20555;-79
2021/03/25 12:21:02;;;;;;;68.43;31.92;;;;;;;11.19;70.90;101736.16;6199265;28;20057;-83
2021/03/25 12:24:06;;;;;;;69.93;33.38;;;;;;;11.15;69.80;101732.78;6199039;28;20455;-82
2021/03/25 12:27:14;;;;;;;70.15;34.28;;;;;;;11.39;69.15;101723.03;6198524;28;20054;-86
2021/03/25 12:30:17;;;;;;;70.37;33.57;;;;;;;11.32;68.24;101716.31;6199031;28;20061;-79
2021/03/25 12:33:20;;;;;;;71.80;31.90;;;;;;;11.31;69.07;101713.72;6198949;28;20107;-83
2021/03/25 12:36:21;;;;;;;72.00;33.03;;;;;;;11.18;69.60;101708.13;6237095;23;20056;-77
2021/03/25 12:39:23;;;;;;;71.93;31.50;;;;;;;11.24;68.72;101701.75;6246706;28;20406;-78
2021/03/25 12:42:24;;;;;;;74.53;32.85;;;;;;;11.09;69.16;101704.09;6247078;28;20049;-77
2021/03/25 12:45:29;;;;;;;70.10;33.85;;;;;;;11.09;69.82;101711.13;6231099;28;20617;-74
2021/03/25 12:48:32;;;;;;;76.38;33.55;;;;;;;11.11;69.76;101709.28;6229420;28;20060;-75
2021/03/25 12:51:33;;;;;;;78.85;33.92;;;;;;;11.16;70.09;101704.69;6247284;28;20045;-75
2021/03/25 12:54:35;;;;;;;84.05;34.30;;;;;;;11.30;71.35;101699.72;6247272;28;20053;-74
2021/03/25 12:57:36;;;;;;;81.78;36.33;;;;;;;11.37;70.89;101701.19;6247048;28;20449;-75
2021/03/25 13:00:39;;;;;;;70.00;33.65;;;;;;;11.63;70.27;101694.84;6247137;28;20063;-75
2021/03/25 13:03:42;;;;;;;65.57;34.17;;;;;;;11.89;70.33;101704.28;6247023;28;20052;-75
2021/03/25 13:06:43;;;;;;;79.78;34.65;;;;;;;12.06;67.18;101703.53;6246746;28;20041;-73
2021/03/25 13:09:44;;;;;;;86.47;35.78;;;;;;;11.95;66.99;101697.06;6247218;28;20049;-77
2021/03/25 13:12:45;;;;;;;66.20;32.28;;;;;;;12.30;66.94;101701.59;6246531;28;20049;-78
2021/03/25 13:15:46;;;;;;;70.90;34.20;;;;;;;12.02;65.15;101696.69;6246453;28;20049;-75
2021/03/25 13:18:47;;;;;;;68.68;33.50;;;;;;;11.95;64.49;101695.28;6246822;28;20107;-74
2021/03/25 13:21:48;;;;;;;67.63;33.95;;;;;;;11.99;67.20;101694.22;6246537;28;20060;-74
2021/03/25 13:24:50;;;;;;;67.20;33.17;;;;;;;12.17;64.18;101697.78;6246936;28;20053;-72
2021/03/25 13:27:51;;;;;;;69.25;33.35;;;;;;;12.37;64.34;101703.03;6246484;28;20052;-74
2021/03/25 13:30:52;;;;;;;72.13;34.97;;;;;;;12.78;61.72;101692.34;6245279;28;20498;-74
2021/03/25 13:33:53;;;;;;;68.72;35.72;;;;;;;12.28;64.08;101700.81;6246303;28;20049;-74
2021/03/25 13:36:55;;;;;;;79.00;36.63;;;;;;;12.47;63.92;101690.28;6246642;28;20091;-79
2021/03/25 13:39:57;;;;;;;79.20;35.70;;;;;;;12.06;65.39;101689.50;6245565;28;20060;-76
2021/03/25 13:42:58;;;;;;;72.65;33.80;;;;;;;12.07;65.14;101689.44;6246485;28;20053;-76
2021/03/25 13:46:00;;;;;;;72.38;33.83;;;;;;;11.63;64.10;101694.84;6246217;28;20060;-76
2021/03/25 13:49:01;;;;;;;66.75;33.38;;;;;;;11.72;65.03;101695.34;6246327;28;20465;-73
2021/03/25 13:52:02;;;;;;;66.55;31.90;;;;;;;11.91;63.62;101698.97;6246010;28;20049;-75
2021/03/25 13:55:05;;;;;;;76.15;35.00;;;;;;;11.84;65.43;101702.75;6246146;28;20100;-76
2021/03/25 13:58:09;;;;;;;67.07;33.60;;;;;;;11.54;64.48;101697.03;6246252;28;20046;-76
2021/03/25 14:01:09;;;;;;;69.50;33.47;;;;;;;11.64;65.03;101693.06;6246053;28;20498;-76
2021/03/25 14:04:11;;;;;;;71.63;33.92;;;;;;;11.63;65.10;101689.59;6246417;28;20057;-77
2021/03/25 14:07:12;;;;;;;72.97;34.85;;;;;;;11.58;66.60;101693.31;6245802;28;20045;-74
2021/03/25 14:10:15;;;;;;;70.63;34.58;;;;;;;11.63;65.69;101683.47;6246148;28;20053;-76
2021/03/25 14:13:18;;;;;;;74.55;36.35;;;;;;;11.54;67.11;101691.75;6245853;28;20061;-74